createdAt,value
2022-09-12T00:00:52.543Z,13.66
2022-09-12T00:05:55.441Z,13.49
2022-09-12T00:10:58.336Z,13.54
2022-09-12T00:16:02.997Z,13.47
2022-09-12T00:21:06.427Z,13.48
2022-09-12T00:26:09.737Z,13.48
2022-09-12T00:31:16.235Z,13.52
2022-09-12T00:36:22.845Z,13.48
2022-09-12T00:41:27.810Z,13.50
2022-09-12T00:46:40.280Z,13.47
2022-09-12T00:51:47.646Z,13.51
2022-09-12T00:56:54.150Z,13.47
2022-09-12T01:01:59.077Z,13.44
2022-09-12T01:07:02.032Z,13.33
2022-09-12T01:12:06.211Z,13.31
2022-09-12T01:17:13.779Z,13.30
2022-09-12T01:22:37.062Z,13.26
2022-09-12T01:28:03.528Z,13.21
2022-09-12T01:33:39.538Z,13.13
2022-09-12T01:38:48.729Z,13.08
2022-09-12T01:43:59.727Z,12.98
2022-09-12T01:49:10.780Z,13.01
2022-09-12T01:54:19.699Z,12.95
2022-09-12T01:59:28.641Z,12.89
2022-09-12T02:04:37.973Z,12.80
2022-09-12T02:09:47.173Z,12.72
2022-09-12T02:14:54.463Z,12.68
2022-09-12T02:20:04.329Z,12.69
2022-09-12T02:25:10.392Z,12.65
2022-09-12T02:30:16.708Z,12.67
2022-09-12T02:35:32.917Z,12.72
2022-09-12T02:40:37.020Z,12.73
2022-09-12T02:45:39.894Z,12.69
2022-09-12T02:50:44.621Z,12.65
2022-09-12T02:55:47.999Z,12.63
2022-09-12T03:00:56.000Z,12.59
2022-09-12T03:06:02.105Z,12.57
2022-09-12T03:11:34.084Z,12.55
2022-09-12T03:16:44.819Z,12.52
2022-09-12T03:22:00.154Z,12.47
2022-09-12T03:27:10.942Z,12.38
2022-09-12T03:32:13.751Z,12.29
2022-09-12T03:37:17.989Z,12.25
2022-09-12T03:42:20.730Z,12.24
2022-09-12T03:47:23.470Z,12.26
2022-09-12T03:52:27.680Z,12.23
2022-09-12T03:57:30.742Z,12.21
2022-09-12T04:02:33.609Z,12.19
2022-09-12T04:07:37.820Z,12.15
2022-09-12T04:12:40.931Z,12.08
2022-09-12T04:17:43.720Z,12.05
2022-09-12T04:22:47.841Z,12.00
2022-09-12T04:27:50.652Z,12.02
2022-09-12T04:32:53.434Z,11.98
2022-09-12T04:37:57.722Z,12.01
2022-09-12T04:43:00.713Z,12.06
2022-09-12T04:48:03.804Z,12.02
2022-09-12T04:53:07.923Z,12.06
2022-09-12T04:58:10.733Z,12.07
2022-09-12T05:03:14.192Z,11.99
2022-09-12T05:08:18.672Z,12.00
2022-09-12T05:13:22.124Z,12.03
2022-09-12T05:18:26.497Z,12.05
2022-09-12T05:23:31.533Z,12.13
2022-09-12T05:28:36.371Z,12.18
2022-09-12T05:33:40.769Z,12.11
2022-09-12T05:38:45.359Z,12.12
2022-09-12T05:43:49.128Z,12.28
2022-09-12T05:48:55.843Z,12.35
2022-09-12T05:54:03.243Z,12.48
2022-09-12T05:59:07.945Z,12.53
2022-09-12T06:04:11.012Z,12.72
2022-09-12T06:09:16.805Z,12.91
2022-09-12T06:14:19.819Z,12.99
2022-09-12T06:19:25.059Z,13.20
2022-09-12T06:24:29.396Z,13.45
2022-09-12T06:29:32.883Z,13.61
2022-09-12T06:34:36.530Z,13.75
2022-09-12T06:39:40.713Z,13.99
2022-09-12T06:44:44.354Z,14.35
2022-09-12T06:49:47.115Z,14.60
2022-09-12T06:54:51.282Z,15.00
2022-09-12T06:59:54.163Z,15.23
2022-09-12T07:04:56.986Z,15.59
2022-09-12T07:10:01.137Z,15.65
2022-09-12T07:15:03.943Z,16.20
2022-09-12T07:20:07.865Z,16.56
2022-09-12T07:25:12.138Z,16.81
2022-09-12T07:30:14.973Z,17.37
2022-09-12T07:35:18.122Z,17.57
2022-09-12T07:40:22.980Z,18.22
2022-09-12T07:45:26.955Z,18.63
2022-09-12T07:50:29.858Z,18.71
2022-09-12T07:55:34.247Z,18.85
2022-09-12T08:00:37.798Z,18.99
2022-09-12T08:05:40.916Z,19.60
2022-09-12T08:10:45.134Z,20.02
2022-09-12T08:15:47.980Z,20.23
2022-09-12T08:20:57.660Z,20.61
2022-09-12T08:26:06.163Z,21.05
2022-09-12T08:31:12.235Z,20.20
2022-09-12T08:36:16.949Z,20.02
2022-09-12T08:41:30.379Z,20.20
2022-09-12T08:46:37.564Z,20.43
2022-09-12T08:51:41.749Z,20.61
2022-09-12T08:56:47.730Z,20.50
2022-09-12T09:01:58.390Z,20.58
2022-09-12T09:07:33.106Z,20.65
2022-09-12T09:12:47.617Z,21.00
2022-09-12T09:17:55.060Z,20.95
2022-09-12T09:23:03.427Z,21.29
2022-09-12T09:28:15.157Z,21.24
2022-09-12T09:33:23.508Z,21.43
2022-09-12T09:38:32.715Z,21.61
2022-09-12T09:43:39.375Z,21.95
2022-09-12T09:48:46.130Z,22.20
2022-09-12T09:53:53.219Z,22.26
2022-09-12T09:58:57.455Z,22.26
2022-09-12T10:04:00.626Z,21.93
2022-09-12T10:09:18.751Z,21.91
2022-09-12T10:14:38.482Z,21.68
2022-09-12T10:19:41.563Z,21.82
2022-09-12T10:24:50.180Z,22.41
2022-09-12T10:30:01.631Z,22.75
2022-09-12T10:35:09.141Z,22.47
2022-09-12T10:40:25.237Z,22.71
2022-09-12T10:45:32.410Z,22.35
2022-09-12T10:50:38.426Z,22.69
2022-09-12T10:55:46.825Z,22.99
2022-09-12T11:01:03.253Z,23.19
2022-09-12T11:06:07.825Z,23.81
2022-09-12T11:11:25.031Z,24.37
2022-09-12T11:16:43.132Z,25.48
2022-09-12T11:22:01.827Z,26.15
2022-09-12T11:27:20.805Z,25.21
2022-09-12T11:32:41.887Z,24.72
2022-09-12T11:38:07.640Z,25.57
2022-09-12T11:43:21.804Z,25.56
2022-09-12T11:48:39.427Z,26.18
2022-09-12T11:53:44.679Z,26.17
2022-09-12T11:58:56.756Z,26.97
2022-09-12T12:04:07.625Z,26.78
2022-09-12T12:09:12.795Z,26.61
2022-09-12T12:14:18.921Z,26.61
2022-09-12T12:19:34.836Z,26.20
2022-09-12T12:25:04.777Z,25.86
2022-09-12T12:30:59.720Z,26.37
2022-09-12T12:36:09.843Z,27.99
2022-09-12T12:41:44.758Z,27.76
2022-09-12T12:47:15.629Z,28.29
2022-09-12T12:52:20.800Z,27.87
2022-09-12T12:57:42.204Z,28.88
2022-09-12T13:02:53.528Z,27.43
2022-09-12T13:08:01.747Z,28.03
2022-09-12T13:13:08.615Z,26.39
2022-09-12T13:18:14.598Z,28.38
2022-09-12T13:23:27.875Z,29.51
2022-09-12T13:28:31.860Z,29.63
2022-09-12T13:33:39.102Z,29.10
2022-09-12T13:38:55.397Z,30.06
2022-09-12T13:43:58.401Z,29.29
2022-09-12T13:49:07.759Z,29.29
2022-09-12T13:54:24.319Z,28.94
2022-09-12T13:59:28.053Z,28.22
2022-09-12T14:04:48.496Z,28.66
2022-09-12T14:09:57.023Z,27.57
2022-09-12T14:15:00.036Z,26.28
2022-09-12T14:20:07.131Z,27.29
2022-09-12T14:25:17.221Z,27.57
2022-09-12T14:30:26.510Z,27.49
2022-09-12T14:35:29.602Z,27.72
2022-09-12T14:40:42.762Z,27.93
2022-09-12T14:45:52.611Z,28.11
2022-09-12T14:50:55.889Z,27.32
2022-09-12T14:56:09.019Z,27.33
2022-09-12T15:01:27.924Z,26.94
2022-09-12T15:06:33.210Z,27.34
2022-09-12T15:11:37.413Z,26.69
2022-09-12T15:16:40.323Z,26.68
2022-09-12T15:21:43.204Z,26.36
2022-09-12T15:26:47.556Z,26.16
2022-09-12T15:31:52.560Z,26.09
2022-09-12T15:36:55.565Z,25.90
2022-09-12T15:41:59.771Z,26.05
2022-09-12T15:47:02.657Z,25.32
2022-09-12T15:52:05.687Z,25.21
2022-09-12T15:57:10.646Z,24.65
2022-09-12T16:02:13.550Z,24.56
2022-09-12T16:07:16.449Z,24.84
2022-09-12T16:12:20.666Z,25.01
2022-09-12T16:17:24.015Z,24.99
2022-09-12T16:22:26.895Z,24.54
2022-09-12T16:27:31.171Z,24.24
2022-09-12T16:32:34.579Z,24.21
2022-09-12T16:37:38.004Z,23.77
2022-09-12T16:42:43.884Z,23.80
2022-09-12T16:47:46.840Z,23.84
2022-09-12T16:52:49.839Z,23.81
2022-09-12T16:57:54.177Z,23.63
2022-09-12T17:02:57.197Z,23.43
2022-09-12T17:08:00.642Z,23.23
2022-09-12T17:13:04.897Z,22.99
2022-09-12T17:18:07.955Z,22.95
2022-09-12T17:23:10.831Z,22.68
2022-09-12T17:28:15.736Z,22.58
2022-09-12T17:33:18.745Z,22.26
2022-09-12T17:38:25.278Z,22.04
2022-09-12T17:43:29.998Z,21.81
2022-09-12T17:48:33.152Z,21.60
2022-09-12T17:53:36.102Z,21.37
2022-09-12T17:58:40.612Z,21.18
2022-09-12T18:03:43.422Z,21.04
2022-09-12T18:08:46.434Z,20.90
2022-09-12T18:13:50.903Z,20.62
2022-09-12T18:18:53.855Z,20.60
2022-09-12T18:23:58.951Z,20.49
2022-09-12T18:29:03.293Z,20.39
2022-09-12T18:34:07.766Z,20.30
2022-09-12T18:39:11.247Z,20.19
2022-09-12T18:44:15.467Z,20.03
2022-09-12T18:49:18.468Z,19.93
2022-09-12T18:54:21.687Z,19.82
2022-09-12T18:59:26.162Z,19.73
2022-09-12T19:04:29.165Z,19.53
2022-09-12T19:09:31.974Z,19.37
2022-09-12T19:14:36.318Z,19.31
2022-09-12T19:19:40.648Z,19.12
2022-09-12T19:24:43.645Z,19.00
2022-09-12T19:29:47.929Z,18.96
2022-09-12T19:34:50.903Z,18.93
2022-09-12T19:39:53.777Z,18.85
2022-09-12T19:44:57.968Z,18.77
2022-09-12T19:50:00.823Z,18.65
2022-09-12T19:55:03.891Z,18.55
2022-09-12T20:00:09.600Z,18.47
2022-09-12T20:05:12.621Z,18.40
2022-09-12T20:10:15.718Z,18.37
2022-09-12T20:15:20.136Z,18.31
2022-09-12T20:20:25.084Z,18.26
2022-09-12T20:25:27.898Z,18.13
2022-09-12T20:30:32.311Z,18.00
2022-09-12T20:35:35.154Z,17.92
2022-09-12T20:40:38.092Z,17.81
2022-09-12T20:45:42.932Z,17.82
2022-09-12T20:50:45.725Z,17.77
2022-09-12T20:55:52.330Z,17.83
2022-09-12T21:00:56.536Z,17.81
2022-09-12T21:05:59.403Z,17.74
2022-09-12T21:11:02.678Z,17.71
2022-09-12T21:16:09.100Z,17.68
2022-09-12T21:21:13.015Z,17.59
2022-09-12T21:26:15.865Z,17.59
2022-09-12T21:38:07.937Z,17.82
2022-09-12T21:43:13.042Z,17.84
2022-09-12T21:48:15.896Z,17.83
2022-09-12T21:53:19.887Z,17.79
2022-09-12T21:58:22.673Z,17.67
2022-09-12T22:03:25.998Z,17.65
2022-09-12T22:08:31.208Z,17.57
2022-09-12T22:13:33.952Z,17.57
2022-09-12T22:18:38.020Z,17.47
2022-09-12T22:23:59.690Z,17.46
2022-09-12T22:29:02.476Z,17.35
2022-09-12T22:34:05.352Z,17.33
2022-09-12T22:39:09.769Z,17.31
2022-09-12T22:44:12.816Z,17.31
2022-09-12T22:49:15.561Z,17.14
2022-09-12T22:54:19.848Z,17.04
2022-09-12T22:59:22.622Z,17.01
2022-09-12T23:04:25.371Z,17.02
2022-09-12T23:09:34.630Z,17.02
2022-09-12T23:14:38.085Z,16.97
2022-09-12T23:19:40.841Z,16.98
2022-09-12T23:24:45.002Z,16.93
2022-09-12T23:29:52.386Z,16.99
2022-09-12T23:34:55.169Z,17.01
2022-09-12T23:39:59.288Z,16.98
2022-09-12T23:45:02.077Z,16.99
2022-09-12T23:50:05.516Z,17.08
2022-09-12T23:55:10.529Z,17.17
